Time;durP1;ratioP1;P1;durP2;ratioP2;P2;SDS_P1;SDS_P2;PMS_P1;PMS_P2;Temp;Humidity;BMP_temperature;BMP_pressure;BME280_temperature;BME280_humidity;BME280_pressure;Samples;Min_cycle;Max_cycle;Signal;HPM_P1;HPM_P2
2024/02/26 00:00:03;;;;;;;;;;;;;;;6.38;58.87;96319.84;5066421;28;19981;-59
2024/02/26 00:02:31;;;;;;;;;;;;;;;6.35;58.82;96311.63;5067265;28;19986;-60
2024/02/26 00:04:59;;;;;;;;;;;;;;;6.23;59.49;96313.09;5067630;28;20375;-59
2024/02/26 00:07:27;;;;;;;;;;;;;;;6.33;59.16;96303.06;5068775;28;19931;-59
2024/02/26 00:09:55;;;;;;;;;;;;;;;6.16;59.82;96302.00;5067034;28;19932;-59
2024/02/26 00:12:24;;;;;;;;;;;;;;;6.08;59.87;96300.13;5063411;28;19936;-57
2024/02/26 00:14:53;;;;;;;;;;;;;;;5.91;60.82;96310.91;5064105;28;20847;-58
2024/02/26 00:17:21;;;;;;;;;;;;;;;5.90;61.32;96303.94;5060529;28;20023;-57
2024/02/26 00:19:48;;;;;;;;;;;;;;;5.90;61.15;96293.16;5065338;28;20370;-57
2024/02/26 00:22:16;;;;;;;;;;;;;;;5.92;61.64;96291.75;5065621;28;19955;-57
2024/02/26 00:24:44;;;;;;;;;;;;;;;6.00;60.92;96288.25;5067810;28;19925;-57
2024/02/26 00:27:12;;;;;;;;;;;;;;;6.04;61.08;96293.78;5066170;28;19968;-57
2024/02/26 00:29:40;;;;;;;;;;;;;;;6.01;61.23;96294.41;5067149;28;19924;-58
2024/02/26 00:32:08;;;;;;;;;;;;;;;6.01;61.23;96289.03;5057877;28;19924;-57
2024/02/26 00:34:37;;;;;;;;;;;;;;;5.95;61.67;96287.63;5066927;28;19924;-58
2024/02/26 00:37:05;;;;;;;;;;;;;;;6.08;61.27;96280.47;5064295;28;19933;-58
2024/02/26 00:39:33;;;;;;;;;;;;;;;6.07;61.28;96282.34;5064470;28;20004;-57
2024/02/26 00:42:01;;;;;;;;;;;;;;;5.97;62.15;96282.72;5063503;28;19931;-59
2024/02/26 00:44:28;;;;;;;;;;;;;;;5.89;62.37;96276.19;5066954;28;19932;-59
2024/02/26 00:46:57;;;;;;;;;;;;;;;5.91;62.54;96279.41;5067002;28;19936;-59
2024/02/26 00:49:25;;;;;;;;;;;;;;;5.97;62.79;96271.94;5062340;28;19936;-59
2024/02/26 00:51:53;;;;;;;;;;;;;;;5.97;62.76;96271.94;5064488;28;19939;-59
2024/02/26 00:54:20;;;;;;;;;;;;;;;5.95;62.37;96268.75;5055922;28;19931;-59
2024/02/26 00:56:48;;;;;;;;;;;;;;;5.98;62.25;96268.91;5067136;28;20469;-60
2024/02/26 00:59:16;;;;;;;;;;;;;;;6.07;62.57;96270.78;5065785;28;19936;-59
2024/02/26 01:01:47;;;;;;;;;;;;;;;5.87;63.15;96273.03;5061592;28;19979;-59
2024/02/26 01:04:16;;;;;;;;;;;;;;;5.92;62.76;96280.19;5067486;28;19938;-59
2024/02/26 01:06:43;;;;;;;;;;;;;;;5.96;62.45;96286.50;5037415;28;20381;-59
2024/02/26 01:09:11;;;;;;;;;;;;;;;5.94;62.77;96277.97;5066975;28;20499;-60
2024/02/26 01:11:39;;;;;;;;;;;;;;;5.88;62.95;96268.44;5064669;28;20366;-60
2024/02/26 01:14:06;;;;;;;;;;;;;;;5.80;63.31;96272.72;5069500;28;20171;-60
2024/02/26 01:16:34;;;;;;;;;;;;;;;5.83;63.43;96282.06;5067579;28;19997;-57
2024/02/26 01:19:02;;;;;;;;;;;;;;;5.70;63.53;96284.66;5053337;28;19936;-57
2024/02/26 01:21:32;;;;;;;;;;;;;;;5.82;63.22;96280.50;5071387;28;20439;-59
2024/02/26 01:23:59;;;;;;;;;;;;;;;5.73;63.67;96283.97;5064001;28;20279;-60
2024/02/26 01:26:28;;;;;;;;;;;;;;;5.66;64.02;96277.50;5070177;28;19928;-59
2024/02/26 01:28:55;;;;;;;;;;;;;;;5.66;64.29;96283.69;5068330;28;19963;-59
2024/02/26 01:31:23;;;;;;;;;;;;;;;5.81;63.74;96285.09;5066602;28;19929;-59
2024/02/26 01:33:51;;;;;;;;;;;;;;;5.72;64.29;96293.19;5069240;28;19924;-59
2024/02/26 01:36:19;;;;;;;;;;;;;;;5.71;63.74;96285.44;5068535;28;19928;-60
2024/02/26 01:38:49;;;;;;;;;;;;;;;5.75;63.93;96281.78;5066104;28;19925;-60
2024/02/26 01:41:16;;;;;;;;;;;;;;;5.67;64.56;96279.88;5065668;28;19928;-59
2024/02/26 01:43:44;;;;;;;;;;;;;;;5.67;64.39;96274.50;5067762;28;20357;-59
2024/02/26 01:46:15;;;;;;;;;;;;;;;5.66;64.40;96278.31;5061713;28;19933;-59
2024/02/26 01:48:43;;;;;;;;;;;;;;;5.53;64.79;96269.25;5066461;28;19928;-60
2024/02/26 01:51:11;;;;;;;;;;;;;;;5.55;65.06;96266.28;5067272;28;19935;-59
2024/02/26 01:53:38;;;;;;;;;;;;;;;5.59;65.23;96259.13;5070761;28;19970;-59
2024/02/26 01:56:07;;;;;;;;;;;;;;;5.65;64.28;96263.25;5066421;28;20011;-59
2024/02/26 01:58:35;;;;;;;;;;;;;;;5.52;65.19;96256.13;5067433;28;19925;-58
2024/02/26 02:01:04;;;;;;;;;;;;;;;5.58;65.31;96249.47;5068551;28;19959;-59
2024/02/26 02:03:31;;;;;;;;;;;;;;;5.54;65.10;96248.53;5065277;28;19936;-57
2024/02/26 02:05:59;;;;;;;;;;;;;;;5.59;65.06;96259.13;5065159;28;20402;-57
2024/02/26 02:08:27;;;;;;;;;;;;;;;5.54;65.77;96259.31;5064117;28;19925;-57
2024/02/26 02:10:55;;;;;;;;;;;;;;;5.70;64.89;96263.09;5064955;28;19935;-58
2024/02/26 02:13:24;;;;;;;;;;;;;;;5.67;64.87;96262.94;5063719;28;19929;-58
2024/02/26 02:15:52;;;;;;;;;;;;;;;5.57;64.86;96253.28;5070036;28;19931;-57
2024/02/26 02:18:20;;;;;;;;;;;;;;;5.63;64.62;96252.00;5070090;28;19925;-59
2024/02/26 02:20:49;;;;;;;;;;;;;;;5.52;65.05;96250.75;5070604;28;19967;-59
2024/02/26 02:23:16;;;;;;;;;;;;;;;5.58;64.91;96259.44;5069263;28;19977;-59
2024/02/26 02:25:44;;;;;;;;;;;;;;;5.55;64.66;96260.09;5066458;28;20341;-59
2024/02/26 02:28:12;;;;;;;;;;;;;;;5.57;64.58;96264.03;5068534;28;19928;-59
2024/02/26 02:30:40;;;;;;;;;;;;;;;5.46;64.77;96263.56;5061110;28;19924;-59
2024/02/26 02:33:08;;;;;;;;;;;;;;;5.35;65.37;96259.63;5060457;28;19925;-60
2024/02/26 02:35:36;;;;;;;;;;;;;;;5.49;64.94;96262.16;5066113;28;19924;-59
2024/02/26 02:38:05;;;;;;;;;;;;;;;5.53;64.58;96261.19;5065614;28;19924;-59
2024/02/26 02:40:32;;;;;;;;;;;;;;;5.67;64.23;96268.31;5068702;28;19925;-58
2024/02/26 02:43:01;;;;;;;;;;;;;;;5.67;64.49;96269.09;5067774;28;20356;-57
2024/02/26 02:45:29;;;;;;;;;;;;;;;5.51;65.30;96262.63;5068334;28;19982;-58
2024/02/26 02:47:57;;;;;;;;;;;;;;;5.34;65.76;96260.75;5056621;28;20132;-57
2024/02/26 02:50:24;;;;;;;;;;;;;;;5.55;65.27;96268.97;5066672;28;19939;-58
2024/02/26 02:52:52;;;;;;;;;;;;;;;5.49;65.32;96264.84;5072758;28;19978;-59
2024/02/26 02:55:21;;;;;;;;;;;;;;;5.57;65.23;96265.94;5068744;28;19924;-60
2024/02/26 02:57:49;;;;;;;;;;;;;;;5.48;65.31;96263.25;5067992;28;20020;-58
2024/02/26 03:00:16;;;;;;;;;;;;;;;5.56;65.39;96259.78;5067152;28;19924;-59
2024/02/26 03:02:47;;;;;;;;;;;;;;;5.51;65.77;96260.72;5067925;28;19943;-59
2024/02/26 03:05:18;;;;;;;;;;;;;;;5.54;65.54;96259.31;5064027;28;20479;-60
2024/02/26 03:07:46;;;;;;;;;;;;;;;5.50;65.26;96259.16;5060208;28;19925;-60
2024/02/26 03:10:14;;;;;;;;;;;;;;;5.56;65.32;96257.06;5060576;28;20386;-59
2024/02/26 03:12:43;;;;;;;;;;;;;;;5.61;65.41;96251.53;5068972;28;19978;-59
2024/02/26 03:15:11;;;;;;;;;;;;;;;5.69;65.20;96253.41;5069584;28;20009;-59
2024/02/26 03:17:39;;;;;;;;;;;;;;;5.73;64.88;96248.16;5068079;28;19928;-57
2024/02/26 03:20:09;;;;;;;;;;;;;;;5.66;65.24;96251.34;5065406;28;19970;-59
2024/02/26 03:22:37;;;;;;;;;;;;;;;5.73;64.90;96246.25;5067660;28;20015;-59
2024/02/26 03:25:05;;;;;;;;;;;;;;;5.66;64.77;96243.28;5067717;28;19924;-59
2024/02/26 03:27:32;;;;;;;;;;;;;;;5.66;65.23;96243.28;5056618;28;20429;-59
2024/02/26 03:30:02;;;;;;;;;;;;;;;5.68;65.18;96249.13;5065002;28;19951;-59
2024/02/26 03:32:30;;;;;;;;;;;;;;;5.51;65.42;96246.47;5068033;28;21099;-57
2024/02/26 03:35:01;;;;;;;;;;;;;;;5.53;65.81;96253.09;5065868;28;19930;-59
2024/02/26 03:37:28;;;;;;;;;;;;;;;5.63;65.15;96248.50;5063227;28;19967;-57
2024/02/26 03:39:57;;;;;;;;;;;;;;;5.72;64.95;96260.84;5066883;28;19925;-58
2024/02/26 03:42:24;;;;;;;;;;;;;;;5.70;64.85;96255.00;5068056;28;19931;-59
2024/02/26 03:44:52;;;;;;;;;;;;;;;5.70;64.74;96257.69;5066185;28;19924;-59
2024/02/26 03:47:21;;;;;;;;;;;;;;;5.69;65.10;96253.41;5067775;28;19930;-57
2024/02/26 03:49:49;;;;;;;;;;;;;;;5.63;64.96;96253.88;5066030;28;19951;-57
2024/02/26 03:52:17;;;;;;;;;;;;;;;5.69;64.76;96253.41;5067143;28;20017;-57
2024/02/26 03:54:44;;;;;;;;;;;;;;;5.77;64.08;96263.38;5064032;28;19959;-58
2024/02/26 03:57:11;;;;;;;;;;;;;;;5.75;64.27;96257.53;5061949;28;19940;-57
2024/02/26 03:59:39;;;;;;;;;;;;;;;5.45;64.88;96256.63;5072747;28;20596;-58
2024/02/26 04:02:07;;;;;;;;;;;;;;;5.43;64.90;96250.75;5065760;28;20020;-57
2024/02/26 04:04:36;;;;;;;;;;;;;;;5.46;65.07;96247.41;5069232;28;20426;-57
2024/02/26 04:07:04;;;;;;;;;;;;;;;5.48;64.74;96255.16;5066435;28;19924;-58
2024/02/26 04:09:32;;;;;;;;;;;;;;;5.51;65.25;96244.56;5066842;28;20761;-58
2024/02/26 04:12:02;;;;;;;;;;;;;;;5.38;65.66;96250.09;5069142;28;19955;-58
2024/02/26 04:14:30;;;;;;;;;;;;;;;5.49;64.95;96262.94;5066194;28;19932;-60
2024/02/26 04:16:58;;;;;;;;;;;;;;;5.49;64.71;96264.84;5063022;28;20069;-57
2024/02/26 04:19:26;;;;;;;;;;;;;;;5.59;64.87;96269.09;5049019;28;19946;-57
2024/02/26 04:21:55;;;;;;;;;;;;;;;5.52;64.93;96266.91;5067226;28;19925;-57
2024/02/26 04:24:22;;;;;;;;;;;;;;;5.58;65.09;96272.91;5067272;28;20612;-57
2024/02/26 04:26:50;;;;;;;;;;;;;;;5.54;64.88;96270.09;5064816;28;19932;-57
2024/02/26 04:29:18;;;;;;;;;;;;;;;5.51;65.41;96270.72;5067330;28;19935;-60
2024/02/26 04:31:46;;;;;;;;;;;;;;;5.53;64.82;96268.47;5065226;28;19928;-57
2024/02/26 04:34:14;;;;;;;;;;;;;;;5.45;65.24;96274.69;5066401;28;19970;-57
2024/02/26 04:36:43;;;;;;;;;;;;;;;5.35;65.55;96266.91;5065732;28;19925;-60
2024/02/26 04:39:12;;;;;;;;;;;;;;;5.44;64.92;96265.03;5067750;28;20313;-57
2024/02/26 04:41:40;;;;;;;;;;;;;;;5.49;65.02;96272.94;5066405;28;19929;-59
2024/02/26 04:44:08;;;;;;;;;;;;;;;5.52;64.63;96266.91;5058229;28;20623;-59
2024/02/26 04:46:38;;;;;;;;;;;;;;;5.56;64.28;96281.31;5067681;28;20405;-59
2024/02/26 04:49:05;;;;;;;;;;;;;;;5.51;64.42;96281.47;5062692;28;19931;-60
2024/02/26 04:51:33;;;;;;;;;;;;;;;5.51;64.69;96278.78;5071607;28;20014;-59
2024/02/26 04:54:01;;;;;;;;;;;;;;;5.42;64.45;96278.00;5066297;28;19930;-59
2024/02/26 04:56:30;;;;;;;;;;;;;;;5.49;64.44;96279.13;5045708;28;19982;-59
2024/02/26 04:58:58;;;;;;;;;;;;;;;5.48;64.58;96277.50;5064476;28;19929;-59
2024/02/26 05:01:26;;;;;;;;;;;;;;;5.52;64.29;96283.06;5058607;28;19925;-59
2024/02/26 05:03:55;;;;;;;;;;;;;;;5.37;64.36;96289.72;5061888;28;19967;-59
2024/02/26 05:06:22;;;;;;;;;;;;;;;5.36;64.32;96284.66;5053187;28;20498;-59
2024/02/26 05:08:50;;;;;;;;;;;;;;;5.69;63.38;96282.25;5068912;28;20127;-59
2024/02/26 05:11:18;;;;;;;;;;;;;;;5.45;64.04;96280.84;5049274;28;19928;-59
2024/02/26 05:13:48;;;;;;;;;;;;;;;5.51;64.54;96281.47;5070604;28;19924;-59
2024/02/26 05:16:16;;;;;;;;;;;;;;;5.68;63.56;96277.97;5071543;28;20298;-59
2024/02/26 05:18:44;;;;;;;;;;;;;;;5.76;63.04;96269.09;5071114;28;19925;-59
2024/02/26 05:21:11;;;;;;;;;;;;;;;5.68;62.87;96275.28;5071087;28;19924;-59
2024/02/26 05:23:39;;;;;;;;;;;;;;;5.92;62.01;96269.41;5070929;28;19924;-59
2024/02/26 05:26:07;;;;;;;;;;;;;;;5.82;62.64;96273.22;5064672;28;19928;-60
2024/02/26 05:28:35;;;;;;;;;;;;;;;5.95;61.73;96279.53;5064761;28;19925;-59
2024/02/26 05:31:04;;;;;;;;;;;;;;;5.93;62.06;96284.47;5062023;28;19933;-59
2024/02/26 05:33:32;;;;;;;;;;;;;;;5.94;61.97;96277.97;5063312;28;19924;-59
2024/02/26 05:36:03;;;;;;;;;;;;;;;5.98;62.24;96278.91;5052098;28;19974;-59
2024/02/26 05:38:31;;;;;;;;;;;;;;;6.04;61.57;96288.41;5070838;28;19958;-59
2024/02/26 05:40:59;;;;;;;;;;;;;;;6.04;61.53;96293.78;5069490;28;19963;-59
2024/02/26 05:43:27;;;;;;;;;;;;;;;6.03;61.27;96303.00;5062408;28;20035;-59
2024/02/26 05:45:55;;;;;;;;;;;;;;;6.14;61.47;96298.06;5071175;28;19928;-60
2024/02/26 05:48:24;;;;;;;;;;;;;;;6.07;61.38;96303.91;5048584;28;19932;-59
2024/02/26 05:50:51;;;;;;;;;;;;;;;6.06;61.71;96302.34;5067198;28;19928;-59
2024/02/26 05:53:19;;;;;;;;;;;;;;;5.94;61.83;96313.78;5070409;28;20570;-59
2024/02/26 05:55:47;;;;;;;;;;;;;;;6.11;61.32;96315.66;5068900;28;19930;-59
2024/02/26 05:58:15;;;;;;;;;;;;;;;5.95;61.67;96312.66;5065157;28;21466;-59
2024/02/26 06:00:42;;;;;;;;;;;;;;;5.79;62.45;96315.03;5067447;28;19925;-60
2024/02/26 06:03:10;;;;;;;;;;;;;;;5.95;62.46;96311.88;5066677;28;19928;-60
2024/02/26 06:05:39;;;;;;;;;;;;;;;5.95;62.05;96317.28;5061931;28;19932;-60
2024/02/26 06:08:07;;;;;;;;;;;;;;;6.09;61.48;96317.09;5069665;28;19925;-59
2024/02/26 06:10:35;;;;;;;;;;;;;;;6.04;62.19;96321.53;5069447;28;20386;-59
2024/02/26 06:13:03;;;;;;;;;;;;;;;6.18;61.65;96315.97;5066065;28;19937;-59
2024/02/26 06:15:30;;;;;;;;;;;;;;;6.09;61.58;96323.28;5069453;28;20400;-59
2024/02/26 06:17:58;;;;;;;;;;;;;;;6.13;61.26;96315.34;5069274;28;20387;-59
2024/02/26 06:20:26;;;;;;;;;;;;;;;6.03;61.85;96316.47;5069348;28;20342;-60
2024/02/26 06:22:55;;;;;;;;;;;;;;;5.90;61.78;96320.09;5062270;28;19928;-60
2024/02/26 06:25:23;;;;;;;;;;;;;;;6.02;61.44;96313.00;5068745;28;19956;-60
2024/02/26 06:27:50;;;;;;;;;;;;;;;6.11;61.41;96312.94;5070460;28;19925;-59
2024/02/26 06:30:18;;;;;;;;;;;;;;;6.19;61.12;96314.84;5068904;28;19929;-59
2024/02/26 06:32:46;;;;;;;;;;;;;;;6.25;60.37;96324.34;5078582;28;19956;-59
2024/02/26 06:35:13;;;;;;;;;;;;;;;6.30;60.87;96329.56;5070056;28;19963;-59
2024/02/26 06:37:41;;;;;;;;;;;;;;;6.33;61.05;96330.81;5069756;28;20428;-60
2024/02/26 06:40:10;;;;;;;;;;;;;;;6.30;60.83;96334.16;5057823;28;20329;-59
2024/02/26 06:42:38;;;;;;;;;;;;;;;6.25;61.23;96329.75;5057578;28;20048;-59
2024/02/26 06:45:07;;;;;;;;;;;;;;;6.43;60.09;96327.78;5064055;28;19932;-59
2024/02/26 06:47:35;;;;;;;;;;;;;;;6.48;60.20;96332.19;5058383;28;20177;-61
2024/02/26 06:50:03;;;;;;;;;;;;;;;6.50;60.08;96338.88;5040948;28;19975;-60
2024/02/26 06:52:30;;;;;;;;;;;;;;;6.54;59.81;96344.38;5061934;28;19929;-60
2024/02/26 06:54:58;;;;;;;;;;;;;;;6.70;59.30;96356.22;5070653;28;19924;-60
2024/02/26 06:57:27;;;;;;;;;;;;;;;6.46;59.53;96353.31;5070869;28;19940;-60
2024/02/26 06:59:55;;;;;;;;;;;;;;;6.55;59.55;96357.59;5067252;28;20247;-60
2024/02/26 07:02:24;;;;;;;;;;;;;;;6.40;60.09;96360.00;5060700;28;19964;-59
2024/02/26 07:04:52;;;;;;;;;;;;;;;6.57;60.22;96365.34;5065586;28;20014;-59
2024/02/26 07:07:19;;;;;;;;;;;;;;;6.60;59.99;96370.06;5068993;28;19928;-60
2024/02/26 07:09:48;;;;;;;;;;;;;;;6.71;59.75;96371.34;5067670;28;19928;-59
2024/02/26 07:12:16;;;;;;;;;;;;;;;6.66;59.74;96371.50;5068808;28;20042;-60
2024/02/26 07:14:45;;;;;;;;;;;;;;;6.49;60.35;96371.53;5066974;28;19932;-60
2024/02/26 07:17:13;;;;;;;;;;;;;;;6.34;60.48;96369.38;5066014;28;20389;-59
2024/02/26 07:19:41;;;;;;;;;;;;;;;6.39;60.75;96363.81;5071648;28;20427;-60
2024/02/26 07:22:09;;;;;;;;;;;;;;;6.51;60.18;96351.25;5062810;28;20458;-59
2024/02/26 07:24:37;;;;;;;;;;;;;;;6.56;60.86;96347.56;5068274;28;20011;-59
2024/02/26 07:27:05;;;;;;;;;;;;;;;6.59;60.28;96352.31;5069457;28;20510;-59
2024/02/26 07:29:33;;;;;;;;;;;;;;;6.63;60.95;96380.25;5068909;28;19928;-60
2024/02/26 07:32:02;;;;;;;;;;;;;;;6.65;60.20;96394.19;5069414;28;19928;-60
2024/02/26 07:34:29;;;;;;;;;;;;;;;6.95;59.18;96386.16;5068193;28;19928;-60
2024/02/26 07:36:57;;;;;;;;;;;;;;;6.75;59.93;96404.63;5062396;28;20329;-60
2024/02/26 07:39:25;;;;;;;;;;;;;;;6.86;60.13;96406.97;5054476;28;19925;-59
2024/02/26 07:41:53;;;;;;;;;;;;;;;6.81;60.19;96389.84;5063070;28;19932;-59
2024/02/26 07:44:21;;;;;;;;;;;;;;;6.79;60.75;96389.38;5067146;28;20444;-59
2024/02/26 07:46:49;;;;;;;;;;;;;;;6.97;59.66;96387.41;5057818;28;20015;-60
2024/02/26 07:49:18;;;;;;;;;;;;;;;6.93;60.29;96389.19;5065869;28;19974;-59
2024/02/26 07:51:46;;;;;;;;;;;;;;;6.99;59.96;96389.78;5060853;28;19925;-60
2024/02/26 07:54:16;;;;;;;;;;;;;;;6.99;60.15;96384.38;5069538;28;20373;-60
2024/02/26 07:56:43;;;;;;;;;;;;;;;7.04;59.56;96384.22;5069360;28;19924;-59
2024/02/26 07:59:11;;;;;;;;;;;;;;;7.30;59.23;96382.16;5058237;28;19932;-60
2024/02/26 08:01:41;;;;;;;;;;;;;;;7.17;59.60;96388.56;5062895;28;19952;-59
2024/02/26 08:04:09;;;;;;;;;;;;;;;7.29;59.47;96385.94;5069457;28;20764;-60
2024/02/26 08:06:38;;;;;;;;;;;;;;;7.09;59.30;96387.50;5065843;28;20453;-60
2024/02/26 08:09:06;;;;;;;;;;;;;;;7.18;59.53;96395.56;5057696;28;19931;-59
2024/02/26 08:11:34;;;;;;;;;;;;;;;7.26;58.33;96396.66;5068012;28;19989;-59
2024/02/26 08:14:02;;;;;;;;;;;;;;;7.39;58.00;96405.63;5068967;28;20469;-59
2024/02/26 08:16:30;;;;;;;;;;;;;;;7.28;59.33;96411.38;5059037;28;20023;-60
2024/02/26 08:18:59;;;;;;;;;;;;;;;7.44;59.34;96417.03;5068555;28;20356;-60
2024/02/26 08:21:26;;;;;;;;;;;;;;;7.50;58.20;96425.72;5064894;28;19952;-60
2024/02/26 08:23:56;;;;;;;;;;;;;;;7.43;58.42;96428.16;5062351;28;19928;-60
2024/02/26 08:26:24;;;;;;;;;;;;;;;7.52;58.47;96426.22;5059256;28;19959;-59
2024/02/26 08:28:52;;;;;;;;;;;;;;;7.46;58.35;96432.94;5066254;28;19932;-60
2024/02/26 08:31:20;;;;;;;;;;;;;;;7.35;58.25;96433.31;5061078;28;19932;-59
2024/02/26 08:33:48;;;;;;;;;;;;;;;7.64;58.18;96436.31;5059258;28;19979;-59
2024/02/26 08:36:16;;;;;;;;;;;;;;;7.41;58.14;96439.31;5064611;28;20436;-60
2024/02/26 08:38:45;;;;;;;;;;;;;;;7.46;59.06;96444.53;5050229;28;19959;-60
2024/02/26 08:41:14;;;;;;;;;;;;;;;7.53;58.28;96444.00;5068281;28;20443;-59
2024/02/26 08:43:42;;;;;;;;;;;;;;;7.27;59.16;96434.13;5069039;28;20405;-59
2024/02/26 08:46:09;;;;;;;;;;;;;;;7.28;58.78;96433.00;5047390;28;19924;-60
2024/02/26 08:48:37;;;;;;;;;;;;;;;7.46;58.67;96436.41;5050472;28;20386;-59
2024/02/26 08:51:06;;;;;;;;;;;;;;;7.35;58.84;96438.72;5063620;28;19973;-60
2024/02/26 08:53:33;;;;;;;;;;;;;;;7.56;58.51;96433.34;5068566;28;19936;-60
2024/02/26 08:56:08;;;;;;;;;;;;;;;7.62;58.40;96433.94;5068968;28;19924;-60
2024/02/26 08:58:37;;;;;;;;;;;;;;;7.63;57.96;96426.63;5060140;28;19928;-60
2024/02/26 09:01:05;;;;;;;;;;;;;;;7.63;58.19;96438.22;5062325;28;19956;-59
2024/02/26 09:03:33;;;;;;;;;;;;;;;7.50;58.24;96434.63;5052754;28;20023;-60
2024/02/26 09:06:03;;;;;;;;;;;;;;;7.70;57.91;96441.19;5067671;28;19924;-60
2024/02/26 09:08:30;;;;;;;;;;;;;;;7.88;58.54;96439.97;5068333;28;19925;-59
2024/02/26 09:10:58;;;;;;;;;;;;;;;7.96;57.85;96430.19;5068008;28;20390;-60
2024/02/26 09:13:26;;;;;;;;;;;;;;;7.83;57.33;96426.63;5068014;28;20024;-60
2024/02/26 09:15:55;;;;;;;;;;;;;;;8.01;56.87;96429.19;5065396;28;19979;-60
2024/02/26 09:18:23;;;;;;;;;;;;;;;8.20;56.29;96429.50;5068142;28;19928;-61
2024/02/26 09:20:51;;;;;;;;;;;;;;;7.92;57.11;96423.06;5067901;28;20377;-60
2024/02/26 09:23:18;;;;;;;;;;;;;;;7.87;57.01;96427.53;5067678;28;19924;-60
2024/02/26 09:25:46;;;;;;;;;;;;;;;8.02;56.73;96423.44;5066640;28;19932;-60
2024/02/26 09:28:16;;;;;;;;;;;;;;;8.12;56.49;96427.69;5067601;28;19925;-59
2024/02/26 09:30:44;;;;;;;;;;;;;;;8.34;56.42;96426.53;5057071;28;20340;-60
2024/02/26 09:33:14;;;;;;;;;;;;;;;8.62;55.55;96429.44;5065830;28;20448;-60
2024/02/26 09:35:42;;;;;;;;;;;;;;;8.66;54.90;96419.53;5060563;28;20390;-60
2024/02/26 09:38:09;;;;;;;;;;;;;;;8.84;55.71;96420.94;5064638;28;20298;-59
2024/02/26 09:40:38;;;;;;;;;;;;;;;8.73;54.37;96422.47;5065732;28;19924;-57
2024/02/26 09:43:07;;;;;;;;;;;;;;;8.88;54.99;96413.72;5071184;28;20478;-57
2024/02/26 09:45:35;;;;;;;;;;;;;;;8.89;54.22;96409.91;5068280;28;20039;-57
2024/02/26 09:48:03;;;;;;;;;;;;;;;9.08;54.26;96408.56;5061010;28;19935;-57
2024/02/26 09:50:34;;;;;;;;;;;;;;;8.88;53.97;96402.88;5067964;28;20056;-57
2024/02/26 09:53:02;;;;;;;;;;;;;;;8.88;53.88;96394.75;5071372;28;20026;-57
2024/02/26 09:55:30;;;;;;;;;;;;;;;8.90;53.46;96378.19;5071514;28;20377;-57
2024/02/26 09:57:58;;;;;;;;;;;;;;;8.91;53.45;96377.84;5053140;28;20485;-60
2024/02/26 10:00:26;;;;;;;;;;;;;;;9.03;53.66;96371.63;5056967;28;20315;-59
2024/02/26 10:02:56;;;;;;;;;;;;;;;9.06;53.61;96378.31;5066063;28;19924;-60
2024/02/26 10:05:24;;;;;;;;;;;;;;;9.06;53.01;96384.53;5071068;28;19935;-59
2024/02/26 10:07:53;;;;;;;;;;;;;;;8.98;53.08;96392.75;5070682;28;20377;-60
2024/02/26 10:10:20;;;;;;;;;;;;;;;9.09;52.53;96405.50;5053101;28;19924;-60
2024/02/26 10:12:50;;;;;;;;;;;;;;;9.24;53.38;96406.75;5065691;28;19928;-60
2024/02/26 10:15:17;;;;;;;;;;;;;;;9.40;52.47;96410.34;5061758;28;20436;-57
2024/02/26 10:17:45;;;;;;;;;;;;;;;9.43;52.45;96415.09;5054110;28;19924;-57
2024/02/26 10:20:14;;;;;;;;;;;;;;;9.47;51.68;96420.63;5070617;28;19929;-57
2024/02/26 10:22:42;;;;;;;;;;;;;;;9.52;52.29;96420.41;5070795;28;19924;-57
2024/02/26 10:25:11;;;;;;;;;;;;;;;9.61;51.98;96431.91;5070884;28;19924;-57
2024/02/26 10:27:41;;;;;;;;;;;;;;;9.74;51.45;96429.19;5070779;28;19931;-57
2024/02/26 10:30:16;;;;;;;;;;;;;;;9.72;50.99;96429.53;5070932;28;20443;-57
2024/02/26 10:32:48;;;;;;;;;;;;;;;9.74;51.75;96429.97;5064295;28;20574;-57
2024/02/26 10:35:17;;;;;;;;;;;;;;;9.81;50.38;96429.41;5056450;28;20393;-57
2024/02/26 10:37:45;;;;;;;;;;;;;;;9.85;49.88;96425.66;5046382;28;19924;-58
2024/02/26 10:40:15;;;;;;;;;;;;;;;9.95;49.43;96425.16;5067362;28;20019;-57
2024/02/26 10:42:43;;;;;;;;;;;;;;;9.89;49.31;96431.19;5054397;28;19964;-57
2024/02/26 10:45:10;;;;;;;;;;;;;;;9.98;49.62;96434.56;5068555;28;19955;-57
2024/02/26 10:47:38;;;;;;;;;;;;;;;10.18;49.69;96430.09;5061100;28;19933;-57
2024/02/26 10:50:07;;;;;;;;;;;;;;;10.11;49.17;96433.38;5061464;28;19924;-57
2024/02/26 10:52:36;;;;;;;;;;;;;;;10.20;49.51;96433.25;5059270;28;20015;-58
2024/02/26 10:55:05;;;;;;;;;;;;;;;10.28;48.79;96437.78;5070223;28;20536;-57
2024/02/26 10:57:37;;;;;;;;;;;;;;;10.15;49.19;96445.13;5070257;28;19936;-58
2024/02/26 11:00:10;;;;;;;;;;;;;;;10.16;49.23;96440.50;5069952;28;19998;-57
2024/02/26 11:02:38;;;;;;;;;;;;;;;10.21;48.94;96442.97;5064068;28;20270;-57
2024/02/26 11:05:06;;;;;;;;;;;;;;;10.26;48.64;96440.03;5070104;28;19955;-57
2024/02/26 11:07:35;;;;;;;;;;;;;;;10.25;47.79;96438.47;5061654;28;19940;-57
2024/02/26 11:10:04;;;;;;;;;;;;;;;10.29;48.47;96450.22;5067262;28;19925;-57
2024/02/26 11:12:34;;;;;;;;;;;;;;;10.32;48.54;96448.72;5049815;28;20382;-57
2024/02/26 11:15:08;;;;;;;;;;;;;;;10.36;48.65;96450.41;5069333;28;19948;-57
2024/02/26 11:17:36;;;;;;;;;;;;;;;10.28;48.62;96447.84;5069801;28;19978;-57
2024/02/26 11:20:05;;;;;;;;;;;;;;;10.42;48.64;96448.25;5058406;28;19935;-57
2024/02/26 11:22:33;;;;;;;;;;;;;;;10.44;48.51;96452.19;5075600;28;20023;-57
2024/02/26 11:25:01;;;;;;;;;;;;;;;10.40;48.18;96451.31;5069366;28;20540;-58
2024/02/26 11:27:30;;;;;;;;;;;;;;;10.61;48.48;96448.41;5054711;28;19939;-57
2024/02/26 11:29:59;;;;;;;;;;;;;;;10.62;47.78;96446.47;5061848;28;19925;-57
2024/02/26 11:32:30;;;;;;;;;;;;;;;10.58;47.73;96451.78;5062178;28;19924;-57
2024/02/26 11:34:58;;;;;;;;;;;;;;;10.66;47.07;96453.56;5066569;28;19928;-57
2024/02/26 11:37:27;;;;;;;;;;;;;;;10.76;47.03;96441.41;5052245;28;19925;-57
2024/02/26 11:40:01;;;;;;;;;;;;;;;10.92;47.22;96444.13;5076497;28;19959;-57
2024/02/26 11:42:29;;;;;;;;;;;;;;;11.09;47.31;96443.03;5038507;28;19924;-61
2024/02/26 11:45:00;;;;;;;;;;;;;;;11.15;47.92;96436.97;5069187;28;20007;-57
2024/02/26 11:47:29;;;;;;;;;;;;;;;11.30;47.44;96438.13;5051410;28;19924;-59
2024/02/26 11:49:57;;;;;;;;;;;;;;;11.35;46.58;96440.56;5059651;28;19925;-57
2024/02/26 11:52:25;;;;;;;;;;;;;;;11.41;46.08;96447.31;5046219;28;19928;-57
2024/02/26 11:54:53;;;;;;;;;;;;;;;11.55;46.88;96444.91;5055235;28;19924;-57
2024/02/26 11:57:22;;;;;;;;;;;;;;;11.64;45.97;96446.69;5070340;28;19924;-58
2024/02/26 11:59:51;;;;;;;;;;;;;;;11.72;45.79;96443.00;5071083;28;20019;-60
2024/02/26 12:02:37;;;;;;;;;;;;;;;11.79;45.62;96440.41;5070675;28;20534;-60
2024/02/26 12:05:08;;;;;;;;;;;;;;;11.75;45.74;96447.72;5053144;28;19947;-59
2024/02/26 12:07:36;;;;;;;;;;;;;;;11.75;44.45;96443.06;5070933;28;19928;-60
2024/02/26 12:10:16;;;;;;;;;;;;;;;11.86;45.31;96443.31;5070696;28;20410;-60
2024/02/26 12:12:44;;;;;;;;;;;;;;;11.98;45.45;96429.59;5066376;28;19930;-60
2024/02/26 12:15:12;;;;;;;;;;;;;;;12.00;44.50;96426.53;5069428;28;20550;-60
2024/02/26 12:17:40;;;;;;;;;;;;;;;12.11;44.92;96429.47;5068622;28;19924;-60
2024/02/26 12:20:13;;;;;;;;;;;;;;;12.18;44.49;96432.34;5068698;28;19931;-60
2024/02/26 12:22:41;;;;;;;;;;;;;;;12.30;44.94;96438.44;5068807;28;19925;-60
2024/02/26 12:25:10;;;;;;;;;;;;;;;12.23;44.52;96440.22;5069120;28;19925;-60
2024/02/26 12:27:39;;;;;;;;;;;;;;;12.31;44.55;96436.50;5066477;28;19929;-60
2024/02/26 12:30:08;;;;;;;;;;;;;;;12.13;44.99;96443.50;5066861;28;19947;-60
2024/02/26 12:32:35;;;;;;;;;;;;;;;12.21;44.56;96435.13;5059022;28;20022;-60
2024/02/26 12:35:05;;;;;;;;;;;;;;;12.24;44.52;96447.22;5068584;28;19932;-60
2024/02/26 12:37:36;;;;;;;;;;;;;;;12.18;44.47;96443.22;5068441;28;19977;-60
2024/02/26 12:40:05;;;;;;;;;;;;;;;12.10;44.67;96446.94;5068828;28;19929;-60
2024/02/26 12:42:38;;;;;;;;;;;;;;;12.09;45.22;96451.63;5065495;28;19925;-60
2024/02/26 12:45:09;;;;;;;;;;;;;;;11.93;44.58;96448.94;5042330;28;20023;-60
2024/02/26 12:47:38;;;;;;;;;;;;;;;12.00;44.23;96440.13;5076360;28;19924;-60
2024/02/26 12:50:06;;;;;;;;;;;;;;;12.15;44.14;96439.28;5068263;28;19936;-60
2024/02/26 12:52:38;;;;;;;;;;;;;;;12.27;43.95;96441.09;5068466;28;20034;-60
2024/02/26 12:55:08;;;;;;;;;;;;;;;12.36;43.88;96441.66;5056440;28;19982;-60
2024/02/26 12:57:36;;;;;;;;;;;;;;;12.52;41.97;96444.31;5061810;28;19982;-59
2024/02/26 13:00:04;;;;;;;;;;;;;;;12.57;41.90;96438.59;5068462;28;19928;-60